Time;durP1;ratioP1;P1;durP2;ratioP2;P2;SDS_P1;SDS_P2;PMS_P1;PMS_P2;Temp;Humidity;BMP_temperature;BMP_pressure;BME280_temperature;BME280_humidity;BME280_pressure;Samples;Min_cycle;Max_cycle;Signal;HPM_P1;HPM_P2
2021/10/23 00:00:14;;;;;;;0.52;0.20;;;;;;;21.97;30.14;98512.19;5085908;28;20048;-52
2021/10/23 00:02:42;;;;;;;1.00;0.22;;;;;;;21.95;30.08;98506.13;5093781;28;20059;-55
2021/10/23 00:05:10;;;;;;;0.52;0.40;;;;;;;21.97;30.08;98512.19;5074794;28;20052;-49
2021/10/23 00:07:38;;;;;;;0.65;0.20;;;;;;;21.95;30.07;98506.94;5071775;28;20062;-51
2021/10/23 00:10:06;;;;;;;0.98;0.40;;;;;;;21.95;29.96;98504.25;5077531;28;20059;-55
2021/10/23 00:12:34;;;;;;;0.70;0.25;;;;;;;21.96;29.94;98516.75;5074951;28;20071;-53
2021/10/23 00:15:02;;;;;;;0.40;0.10;;;;;;;21.95;29.94;98520.50;5066682;28;20076;-56
2021/10/23 00:17:32;;;;;;;0.93;0.20;;;;;;;21.96;29.87;98519.47;5067264;28;20063;-56
2021/10/23 00:20:01;;;;;;;1.02;0.32;;;;;;;21.95;29.93;98525.06;5067899;28;20048;-56
2021/10/23 00:22:28;;;;;;;0.85;0.30;;;;;;;21.95;30.08;98523.19;5061784;28;20074;-50
2021/10/23 00:24:56;;;;;;;0.82;0.20;;;;;;;21.97;29.86;98528.41;5083335;28;20059;-52
2021/10/23 00:27:24;;;;;;;0.65;0.30;;;;;;;21.96;29.92;98538.41;5069400;28;20057;-56
2021/10/23 00:29:52;;;;;;;0.90;0.22;;;;;;;21.96;29.85;98538.41;5073969;28;20067;-53
2021/10/23 00:32:20;;;;;;;1.10;0.30;;;;;;;21.95;29.88;98542.16;5066500;28;20048;-54
2021/10/23 00:34:49;;;;;;;0.63;0.30;;;;;;;21.94;29.95;98537.75;5057571;28;20059;-51
2021/10/23 00:37:17;;;;;;;0.63;0.20;;;;;;;21.93;29.72;98555.84;5064675;28;20060;-53
2021/10/23 00:39:45;;;;;;;0.50;0.40;;;;;;;21.95;29.93;98550.25;5056675;28;20053;-54
2021/10/23 00:42:13;;;;;;;0.98;0.30;;;;;;;21.95;29.75;98561.09;5074121;28;20501;-54
2021/10/23 00:44:43;;;;;;;0.85;0.30;;;;;;;21.95;29.85;98555.69;5082107;28;20063;-55
2021/10/23 00:47:11;;;;;;;0.63;0.10;;;;;;;21.94;29.87;98554.00;5061093;28;20056;-52
2021/10/23 00:49:39;;;;;;;0.68;0.20;;;;;;;21.96;29.80;98567.34;5068041;28;20048;-55
2021/10/23 00:52:09;;;;;;;0.32;0.30;;;;;;;21.95;29.83;98565.66;5066002;28;20055;-56
2021/10/23 00:54:37;;;;;;;0.52;0.20;;;;;;;21.94;29.80;98567.53;5077614;28;20044;-51
2021/10/23 00:57:05;;;;;;;0.75;0.22;;;;;;;21.95;29.79;98571.09;5071153;28;20401;-53
2021/10/23 00:59:33;;;;;;;1.17;0.22;;;;;;;21.94;29.83;98575.66;5078168;28;20052;-51
2021/10/23 01:02:01;;;;;;;0.75;0.20;;;;;;;21.95;29.85;98576.50;5070043;28;20060;-56
2021/10/23 01:04:29;;;;;;;1.02;0.30;;;;;;;21.95;29.71;98568.38;5079131;28;20049;-48
2021/10/23 01:06:57;;;;;;;1.10;0.50;;;;;;;21.94;29.69;98581.06;5087355;28;20064;-58
2021/10/23 01:09:26;;;;;;;0.35;0.20;;;;;;;21.93;29.67;98593.72;5066914;28;20413;-50
2021/10/23 01:11:54;;;;;;;1.00;0.40;;;;;;;21.95;29.74;98600.88;5092346;28;20049;-55
2021/10/23 01:14:24;;;;;;;1.60;0.35;;;;;;;21.93;29.65;98609.97;5084157;28;20055;-52
2021/10/23 01:16:52;;;;;;;1.33;0.20;;;;;;;21.93;29.75;98598.31;5062898;28;20900;-51
2021/10/23 01:19:21;;;;;;;1.38;0.30;;;;;;;21.91;29.79;98601.19;5085177;28;20405;-50
2021/10/23 01:21:52;;;;;;;0.57;0.10;;;;;;;21.93;29.79;98607.28;5063912;28;20049;-54
2021/10/23 01:24:20;;;;;;;0.70;0.20;;;;;;;21.93;29.61;98611.84;5073035;28;20056;-53
2021/10/23 01:26:47;;;;;;;0.40;0.30;;;;;;;21.94;30.07;98616.25;5068517;28;20056;-49
2021/10/23 01:29:16;;;;;;;0.55;0.50;;;;;;;21.91;29.75;98622.03;5067375;28;20540;-53
2021/10/23 01:31:44;;;;;;;1.00;0.20;;;;;;;21.93;29.69;98628.09;5071098;28;20578;-52
2021/10/23 01:34:13;;;;;;;0.20;0.20;;;;;;;21.89;29.91;98630.28;5061603;28;20057;-56
2021/10/23 01:36:45;;;;;;;0.45;0.20;;;;;;;21.93;29.73;98642.47;5084991;28;20059;-51
2021/10/23 01:39:14;;;;;;;0.88;0.28;;;;;;;21.92;29.73;98640.78;5072923;28;20053;-50
2021/10/23 01:41:42;;;;;;;0.75;0.20;;;;;;;21.93;29.83;98644.31;5067632;28;20555;-49
2021/10/23 01:44:11;;;;;;;0.55;0.30;;;;;;;21.92;29.93;98645.34;5076515;28;20048;-49
2021/10/23 01:46:39;;;;;;;1.02;0.32;;;;;;;21.92;29.84;98651.59;5088507;28;20380;-55
2021/10/23 01:49:06;;;;;;;1.17;0.32;;;;;;;21.85;29.90;98641.66;5089194;28;20489;-54
2021/10/23 01:51:34;;;;;;;1.17;0.38;;;;;;;21.91;29.75;98657.22;5076071;28;20055;-48
2021/10/23 01:54:03;;;;;;;0.90;0.22;;;;;;;21.92;29.96;98669.72;5091795;28;20423;-53
2021/10/23 01:56:33;;;;;;;1.27;0.20;;;;;;;21.92;29.89;98675.97;5077845;28;20049;-54
2021/10/23 01:59:01;;;;;;;1.27;0.30;;;;;;;21.90;30.03;98669.91;5101064;28;20048;-52
2021/10/23 02:01:29;;;;;;;0.80;0.30;;;;;;;21.92;30.00;98677.84;5075630;28;20044;-54
2021/10/23 02:03:57;;;;;;;0.93;0.25;;;;;;;21.93;30.00;98687.63;5078385;28;20052;-51
2021/10/23 02:06:25;;;;;;;0.93;0.30;;;;;;;21.91;29.95;98689.69;5092841;28;20047;-51
2021/10/23 02:08:53;;;;;;;0.57;0.20;;;;;;;21.90;29.89;98691.56;5073048;28;20060;-54
2021/10/23 02:11:21;;;;;;;0.45;0.20;;;;;;;21.91;29.96;98682.41;5070884;28;20052;-49
2021/10/23 02:13:51;;;;;;;0.77;0.20;;;;;;;21.91;30.14;98698.66;5065156;28;20061;-48
2021/10/23 02:16:19;;;;;;;0.60;0.20;;;;;;;21.90;30.01;98698.81;5082492;28;20056;-55
2021/10/23 02:18:47;;;;;;;1.70;0.35;;;;;;;21.91;30.01;98704.06;5083422;28;20052;-50
2021/10/23 02:21:15;;;;;;;0.30;0.13;;;;;;;21.90;30.02;98698.81;5076764;28;20056;-54
2021/10/23 02:23:43;;;;;;;1.25;0.30;;;;;;;21.90;30.03;98706.94;5071969;28;20067;-52
2021/10/23 02:26:12;;;;;;;0.43;0.17;;;;;;;21.91;30.03;98711.34;5064344;28;20059;-56
2021/10/23 02:28:40;;;;;;;1.75;0.30;;;;;;;21.87;29.98;98704.59;5073321;28;20063;-49
2021/10/23 02:31:09;;;;;;;0.52;0.20;;;;;;;21.57;29.98;98658.25;5078556;28;20061;-49
2021/10/23 02:33:36;;;;;;;1.10;0.20;;;;;;;21.90;29.92;98718.63;5077769;28;20679;-54
2021/10/23 02:36:05;;;;;;;0.90;0.30;;;;;;;21.91;29.96;98724.88;5077587;28;20064;-55
2021/10/23 02:38:34;;;;;;;0.40;0.10;;;;;;;21.90;29.92;98724.03;5082061;28;20052;-51
2021/10/23 02:41:02;;;;;;;0.82;0.30;;;;;;;21.90;29.97;98734.00;5072085;28;20067;-55
2021/10/23 02:43:29;;;;;;;0.73;0.20;;;;;;;21.91;30.02;98733.00;5085072;28;20052;-52
2021/10/23 02:45:57;;;;;;;0.98;0.20;;;;;;;21.90;29.92;98734.00;5073610;28;20067;-52
2021/10/23 02:48:27;;;;;;;0.35;0.35;;;;;;;21.91;30.01;98739.25;5078575;28;20055;-49
2021/10/23 02:50:55;;;;;;;1.35;0.28;;;;;;;21.90;30.07;98737.56;5076374;28;20056;-53
2021/10/23 02:53:23;;;;;;;2.22;0.30;;;;;;;21.88;29.99;98741.47;5086203;28;20053;-53
2021/10/23 02:55:50;;;;;;;0.60;0.20;;;;;;;21.90;30.02;98742.13;5062427;28;20432;-48
2021/10/23 02:58:20;;;;;;;0.30;0.15;;;;;;;21.90;29.96;98752.94;5092962;28;20052;-55
2021/10/23 03:00:48;;;;;;;0.38;0.17;;;;;;;21.90;30.00;98751.09;5082016;28;20067;-50
2021/10/23 03:03:16;;;;;;;0.30;0.20;;;;;;;21.89;29.92;98757.50;5059507;28;20048;-49
2021/10/23 03:05:46;;;;;;;0.75;0.17;;;;;;;21.84;30.04;98749.06;5095788;28;20066;-52
2021/10/23 03:08:15;;;;;;;0.30;0.10;;;;;;;21.90;30.10;98767.34;5080103;28;20118;-55
2021/10/23 03:10:43;;;;;;;0.95;0.20;;;;;;;21.89;30.22;98768.34;5073437;28;20049;-56
2021/10/23 03:13:11;;;;;;;1.40;0.20;;;;;;;21.87;30.05;98764.97;5075084;28;20052;-53
2021/10/23 03:15:40;;;;;;;0.40;0.20;;;;;;;21.88;30.03;98772.06;5064956;28;20064;-52
2021/10/23 03:18:07;;;;;;;0.20;0.10;;;;;;;21.89;29.92;98767.50;5076572;28;20059;-50
2021/10/23 03:20:35;;;;;;;0.75;0.10;;;;;;;21.88;30.08;98780.19;5066084;28;20067;-53
2021/10/23 03:23:04;;;;;;;0.30;0.17;;;;;;;21.82;29.91;98763.78;5063181;28;20524;-50
2021/10/23 03:25:32;;;;;;;0.30;0.10;;;;;;;21.89;29.98;98781.88;5064176;28;20057;-56
2021/10/23 03:28:01;;;;;;;0.10;0.00;;;;;;;21.88;30.09;98788.31;5070488;28;20048;-51
2021/10/23 03:30:30;;;;;;;0.22;0.10;;;;;;;21.88;30.04;98793.72;5074467;28;20069;-48
2021/10/23 03:32:58;;;;;;;1.00;0.25;;;;;;;21.87;30.02;98797.47;5073566;28;20041;-52
2021/10/23 03:35:25;;;;;;;0.43;0.25;;;;;;;21.89;30.03;98800.81;5074216;28;20056;-49
2021/10/23 03:37:53;;;;;;;1.02;0.30;;;;;;;21.88;30.01;98793.72;5075406;28;20055;-53
2021/10/23 03:40:22;;;;;;;0.52;0.10;;;;;;;21.88;30.09;98792.88;5067790;28;20067;-52
2021/10/23 03:42:50;;;;;;;0.90;0.30;;;;;;;21.88;30.03;98804.56;5072997;28;20044;-53
2021/10/23 03:45:19;;;;;;;0.73;0.28;;;;;;;21.87;30.02;98800.16;5067307;28;20064;-52
2021/10/23 03:47:47;;;;;;;0.40;0.20;;;;;;;21.89;29.87;98810.81;5081646;28;20055;-55
2021/10/23 03:50:15;;;;;;;0.73;0.15;;;;;;;21.89;30.08;98816.22;5068714;28;20052;-54
2021/10/23 03:52:42;;;;;;;0.30;0.17;;;;;;;21.89;29.99;98818.94;5084258;28;20048;-56
2021/10/23 03:55:13;;;;;;;0.20;0.10;;;;;;;21.88;30.03;98826.22;5080745;28;20063;-53
2021/10/23 03:57:44;;;;;;;0.30;0.10;;;;;;;21.88;29.88;98828.06;5073247;28;20056;-51
2021/10/23 04:00:13;;;;;;;0.35;0.20;;;;;;;21.88;30.08;98830.78;5074501;28;20056;-52
2021/10/23 04:02:42;;;;;;;0.20;0.10;;;;;;;21.88;29.97;98837.03;5067266;28;20044;-54
2021/10/23 04:05:10;;;;;;;1.45;0.20;;;;;;;21.86;29.84;98840.91;5086084;28;20067;-48
2021/10/23 04:07:38;;;;;;;0.22;0.10;;;;;;;21.88;29.90;98853.28;5079910;28;20055;-54
2021/10/23 04:10:06;;;;;;;0.30;0.20;;;;;;;21.88;30.13;98852.44;5078794;28;20060;-47
2021/10/23 04:12:34;;;;;;;0.13;0.10;;;;;;;21.87;30.11;98851.59;5072623;28;20048;-56
2021/10/23 04:15:05;;;;;;;0.43;0.10;;;;;;;21.87;30.16;98857.00;5079611;28;20080;-57
2021/10/23 04:17:32;;;;;;;0.98;0.20;;;;;;;21.87;29.96;98854.31;5073187;28;20056;-53
2021/10/23 04:20:00;;;;;;;0.30;0.17;;;;;;;21.87;30.06;98853.47;5070819;28;20048;-51
2021/10/23 04:22:28;;;;;;;1.48;0.82;;;;;;;21.88;30.00;98863.25;5068527;28;20049;-53
2021/10/23 04:24:56;;;;;;;0.50;0.10;;;;;;;21.87;30.02;98857.00;5071039;28;20073;-55
2021/10/23 04:27:24;;;;;;;0.35;0.22;;;;;;;21.86;30.06;98860.72;5066103;28;20064;-50
2021/10/23 04:29:52;;;;;;;0.30;0.10;;;;;;;21.88;30.05;98868.69;5069079;28;20072;-51
2021/10/23 04:32:21;;;;;;;0.10;0.10;;;;;;;21.86;30.07;98868.00;5096046;28;20063;-56
2021/10/23 04:34:49;;;;;;;0.28;0.10;;;;;;;21.85;30.07;98867.16;5073545;28;20057;-52
2021/10/23 04:37:16;;;;;;;0.75;0.05;;;;;;;21.87;30.19;98885.94;5072403;28;20524;-52
2021/10/23 04:39:44;;;;;;;0.55;0.10;;;;;;;21.88;30.08;98884.91;5084480;28;20052;-55
2021/10/23 04:42:12;;;;;;;0.75;0.13;;;;;;;21.87;29.99;98889.50;5081700;28;20071;-48
2021/10/23 04:44:40;;;;;;;0.30;0.10;;;;;;;21.87;30.11;98894.06;5092504;28;20075;-53
2021/10/23 04:47:07;;;;;;;0.47;0.10;;;;;;;21.86;30.03;98895.91;5085145;28;20068;-52
2021/10/23 04:49:36;;;;;;;1.30;0.30;;;;;;;21.86;30.09;98909.44;5078707;28;20060;-55
2021/10/23 04:52:05;;;;;;;0.57;0.10;;;;;;;21.87;30.24;98910.31;5075340;28;20056;-54
2021/10/23 04:54:32;;;;;;;1.20;0.90;;;;;;;21.82;30.11;98902.66;5091827;28;20048;-53
2021/10/23 04:57:00;;;;;;;0.45;0.13;;;;;;;21.65;29.97;98881.97;5085217;28;20048;-53
2021/10/23 04:59:28;;;;;;;0.08;0.08;;;;;;;21.85;30.06;98913.16;5066941;28;20485;-53
2021/10/23 05:01:55;;;;;;;1.15;0.15;;;;;;;21.86;30.13;98917.56;5067322;28;20052;-55
2021/10/23 05:04:23;;;;;;;0.15;0.08;;;;;;;21.85;30.04;98925.84;5086593;28;20572;-56
2021/10/23 05:06:52;;;;;;;0.17;0.10;;;;;;;21.85;30.03;98928.56;5083530;28;20060;-53
2021/10/23 05:09:20;;;;;;;0.88;0.20;;;;;;;21.85;29.92;98934.81;5071300;28;20060;-51
2021/10/23 05:11:48;;;;;;;0.00;0.00;;;;;;;21.86;29.99;98930.25;5071935;28;20059;-51
2021/10/23 05:14:15;;;;;;;0.00;0.00;;;;;;;21.85;30.06;98942.09;5069548;28;20048;-49
2021/10/23 05:16:43;;;;;;;0.30;0.03;;;;;;;21.86;30.10;98958.16;5085913;28;20055;-51
2021/10/23 05:19:13;;;;;;;0.30;0.10;;;;;;;21.85;30.09;98953.75;5078498;28;20053;-54
2021/10/23 05:21:41;;;;;;;0.38;0.10;;;;;;;21.84;30.12;98956.66;5060323;28;20515;-55
2021/10/23 05:24:10;;;;;;;0.30;0.10;;;;;;;21.85;30.07;98961.88;5086856;28;20515;-53
2021/10/23 05:26:38;;;;;;;0.05;0.05;;;;;;;21.84;29.99;98967.47;5077120;28;20079;-56
2021/10/23 05:29:05;;;;;;;0.32;0.10;;;;;;;21.86;30.09;98968.97;5068098;28;20494;-54
2021/10/23 05:31:33;;;;;;;0.35;0.10;;;;;;;21.84;29.91;98978.31;5066365;28;20448;-54
2021/10/23 05:34:02;;;;;;;0.45;0.10;;;;;;;21.86;30.16;98984.38;5081543;28;20048;-55
2021/10/23 05:36:30;;;;;;;0.70;0.10;;;;;;;21.85;29.86;98985.41;5059787;28;20071;-51
2021/10/23 05:38:58;;;;;;;0.15;0.10;;;;;;;21.85;29.91;98998.94;5082984;28;20052;-56
2021/10/23 05:41:27;;;;;;;0.47;0.00;;;;;;;21.84;30.03;98995.38;5073361;28;20084;-54
2021/10/23 05:43:55;;;;;;;0.10;0.00;;;;;;;21.81;29.99;98998.41;5070106;28;20388;-56
2021/10/23 05:46:22;;;;;;;0.20;0.10;;;;;;;21.85;30.01;99004.34;5082645;28;20052;-55
2021/10/23 05:48:51;;;;;;;0.00;0.00;;;;;;;21.82;29.96;99005.50;5066304;28;20059;-52
2021/10/23 05:51:20;;;;;;;0.43;0.20;;;;;;;21.84;30.13;99017.03;5071983;28;20053;-58
2021/10/23 05:53:48;;;;;;;0.45;0.10;;;;;;;21.85;30.04;99020.59;5083704;28;20509;-52
2021/10/23 05:56:16;;;;;;;0.22;0.08;;;;;;;21.84;30.06;99025.16;5077793;28;20060;-48
2021/10/23 05:58:45;;;;;;;0.20;0.10;;;;;;;21.85;29.94;99026.84;5070740;28;20055;-50
2021/10/23 06:01:12;;;;;;;0.10;0.10;;;;;;;21.84;29.80;99038.69;5057206;28;20067;-49
2021/10/23 06:03:40;;;;;;;0.30;0.10;;;;;;;21.84;29.93;99038.69;5061434;28;20048;-49
2021/10/23 06:06:08;;;;;;;0.20;0.10;;;;;;;21.84;29.86;99052.22;5060719;28;20068;-52
2021/10/23 06:08:37;;;;;;;0.32;0.10;;;;;;;21.80;29.86;99045.44;5092134;28;20045;-51
2021/10/23 06:11:05;;;;;;;0.10;0.05;;;;;;;21.82;29.94;99056.94;5076005;28;20052;-51
2021/10/23 06:13:34;;;;;;;0.38;0.15;;;;;;;21.84;29.96;99068.47;5069881;28;20412;-53
2021/10/23 06:16:03;;;;;;;0.03;0.00;;;;;;;21.83;29.99;99072.19;5088035;28;20064;-56
2021/10/23 06:18:31;;;;;;;0.13;0.00;;;;;;;21.85;30.06;99082.84;5059957;28;20413;-55
2021/10/23 06:21:00;;;;;;;0.00;0.00;;;;;;;21.83;29.78;99077.63;5075085;28;20053;-52
2021/10/23 06:23:30;;;;;;;0.15;0.10;;;;;;;21.83;29.93;99085.72;5072415;28;20044;-51
2021/10/23 06:25:58;;;;;;;0.65;0.20;;;;;;;21.84;29.98;99087.41;5067253;28;20056;-49
2021/10/23 06:28:26;;;;;;;0.20;0.10;;;;;;;21.85;30.10;99096.38;5075226;28;20044;-56
2021/10/23 06:30:55;;;;;;;0.30;0.20;;;;;;;21.83;29.97;99101.97;5070745;28;20064;-56
2021/10/23 06:33:24;;;;;;;0.45;0.25;;;;;;;21.83;29.85;99107.38;5081844;28;20416;-56
2021/10/23 06:35:53;;;;;;;0.10;0.10;;;;;;;21.83;29.93;99110.09;5068493;28;20053;-55
2021/10/23 06:38:20;;;;;;;0.50;0.20;;;;;;;21.83;29.90;99112.81;5083109;28;20052;-54
2021/10/23 06:40:49;;;;;;;0.45;0.10;;;;;;;21.84;30.03;99124.47;5084181;28;20063;-54
2021/10/23 06:43:17;;;;;;;0.70;0.10;;;;;;;21.83;30.07;99129.03;5072054;28;20639;-54
2021/10/23 06:45:45;;;;;;;0.20;0.10;;;;;;;21.83;29.81;99131.75;5067385;28;20424;-50
2021/10/23 06:48:13;;;;;;;0.25;0.10;;;;;;;21.83;30.10;99129.03;5074461;28;20049;-50
2021/10/23 06:50:42;;;;;;;0.30;0.10;;;;;;;21.83;30.04;99139.88;5083686;28;20056;-54
2021/10/23 06:53:10;;;;;;;0.28;0.20;;;;;;;21.83;30.14;99144.41;5074105;28;20056;-53
2021/10/23 06:55:37;;;;;;;0.68;0.17;;;;;;;21.82;29.93;99148.97;5077290;28;20056;-55
2021/10/23 06:58:06;;;;;;;0.80;0.20;;;;;;;21.83;30.06;99158.81;5067993;28;20061;-48
2021/10/23 07:00:34;;;;;;;0.10;0.00;;;;;;;21.82;29.92;99158.97;5062608;28;20056;-52
2021/10/23 07:03:02;;;;;;;0.20;0.10;;;;;;;21.82;29.85;99164.38;5063058;28;20429;-55
2021/10/23 07:05:30;;;;;;;0.63;0.20;;;;;;;21.82;30.00;99162.50;5071419;28;20063;-52
2021/10/23 07:07:59;;;;;;;0.88;0.20;;;;;;;21.83;29.97;99174.19;5075180;28;20056;-56
2021/10/23 07:10:27;;;;;;;0.00;0.00;;;;;;;21.84;29.98;99175.91;5071160;28;20055;-54
2021/10/23 07:12:55;;;;;;;0.68;0.20;;;;;;;21.82;29.94;99184.16;5074788;28;20067;-51
2021/10/23 07:15:23;;;;;;;0.60;0.20;;;;;;;21.81;29.93;99187.88;5067267;28;20053;-51
2021/10/23 07:17:52;;;;;;;0.50;0.20;;;;;;;21.78;30.03;99185.50;5076066;28;20382;-53
2021/10/23 07:20:20;;;;;;;0.75;0.47;;;;;;;21.83;29.91;99203.97;5073218;28;20052;-58
2021/10/23 07:22:49;;;;;;;0.57;0.13;;;;;;;21.83;29.92;99201.25;5065612;28;20048;-51
2021/10/23 07:25:19;;;;;;;0.45;0.10;;;;;;;21.82;30.15;99213.94;5067335;28;20055;-55
2021/10/23 07:27:46;;;;;;;0.38;0.10;;;;;;;21.83;29.87;99220.19;5069359;28;20063;-49
2021/10/23 07:30:14;;;;;;;0.10;0.10;;;;;;;21.84;29.90;99230.88;5065832;28;20067;-51
2021/10/23 07:32:42;;;;;;;0.80;0.10;;;;;;;21.81;29.86;99231.19;5084906;28;20048;-56
2021/10/23 07:35:10;;;;;;;0.20;0.10;;;;;;;21.83;30.01;99236.44;5067003;28;20061;-49
2021/10/23 07:37:38;;;;;;;0.10;0.10;;;;;;;21.83;29.88;99241.84;5084327;28;20536;-53
2021/10/23 07:40:07;;;;;;;0.60;0.10;;;;;;;21.80;29.58;99248.47;5066299;28;20063;-53
2021/10/23 07:42:36;;;;;;;0.10;0.10;;;;;;;21.83;29.92;99258.97;5082379;28;20064;-49
2021/10/23 07:45:06;;;;;;;0.55;0.10;;;;;;;21.83;29.83;99261.69;5064011;28;20056;-55
2021/10/23 07:47:34;;;;;;;0.20;0.15;;;;;;;21.81;30.00;99258.28;5076402;28;20057;-58
2021/10/23 07:50:02;;;;;;;0.60;0.17;;;;;;;21.83;29.85;99261.69;5068323;28;20060;-50
2021/10/23 07:52:30;;;;;;;0.30;0.10;;;;;;;21.83;29.86;99268.91;5061347;28;20052;-52
2021/10/23 07:54:58;;;;;;;0.63;0.20;;;;;;;21.83;29.81;99271.63;5063346;28;20053;-56
2021/10/23 07:57:26;;;;;;;0.38;0.13;;;;;;;21.83;29.87;99283.34;5067609;28;20045;-52
2021/10/23 07:59:55;;;;;;;0.30;0.10;;;;;;;21.83;29.67;99280.63;5068280;28;20060;-53
2021/10/23 08:02:24;;;;;;;0.75;0.22;;;;;;;21.83;29.52;99288.75;5082430;28;20075;-52
2021/10/23 08:04:52;;;;;;;0.93;0.20;;;;;;;21.84;29.85;99295.00;5065229;28;20057;-55
2021/10/23 08:07:21;;;;;;;0.55;0.15;;;;;;;21.82;29.88;99295.16;5074517;28;20057;-54
2021/10/23 08:09:49;;;;;;;1.45;0.30;;;;;;;21.81;29.78;99301.56;5070935;28;20509;-48
2021/10/23 08:12:17;;;;;;;0.45;0.20;;;;;;;21.82;29.61;99300.56;5060201;28;20068;-52
2021/10/23 08:14:44;;;;;;;0.40;0.35;;;;;;;21.81;29.77;99319.69;5082657;28;20049;-54
2021/10/23 08:17:13;;;;;;;0.10;0.08;;;;;;;21.82;29.67;99322.22;5064923;28;20049;-53
2021/10/23 08:19:42;;;;;;;0.30;0.10;;;;;;;21.55;29.69;99284.41;5087250;28;20055;-50
2021/10/23 08:22:09;;;;;;;0.05;0.05;;;;;;;21.83;29.62;99337.47;5075076;28;20091;-48
2021/10/23 08:24:37;;;;;;;0.55;0.25;;;;;;;21.82;29.77;99338.47;5064438;28;20063;-54
2021/10/23 08:27:05;;;;;;;0.40;0.20;;;;;;;21.82;29.75;99341.16;5068521;28;20060;-55
2021/10/23 08:29:34;;;;;;;0.80;0.20;;;;;;;21.83;29.47;99353.72;5067576;28;20069;-54
2021/10/23 08:32:02;;;;;;;0.20;0.20;;;;;;;21.83;29.64;99356.44;5064902;28;20056;-51
2021/10/23 08:34:31;;;;;;;0.60;0.10;;;;;;;21.82;29.63;99362.81;5059470;28;20486;-59
2021/10/23 08:36:59;;;;;;;0.65;0.20;;;;;;;21.83;29.64;99371.78;5061021;28;20065;-56
2021/10/23 08:39:26;;;;;;;1.60;0.10;;;;;;;21.83;29.73;99377.19;5065630;28;20056;-52
2021/10/23 08:41:54;;;;;;;1.10;0.20;;;;;;;21.83;29.72;99378.09;5059804;28;20428;-49
2021/10/23 08:44:22;;;;;;;0.70;0.20;;;;;;;21.82;29.61;99384.47;5066136;28;20064;-54
2021/10/23 08:46:50;;;;;;;0.68;0.30;;;;;;;21.84;29.66;99389.75;5065991;28;20063;-50
2021/10/23 08:49:18;;;;;;;0.68;0.28;;;;;;;21.82;29.65;99405.28;5070281;28;20057;-55
2021/10/23 08:51:48;;;;;;;0.10;0.10;;;;;;;21.83;29.60;99404.28;5062403;28;20571;-57
2021/10/23 08:54:16;;;;;;;1.08;0.22;;;;;;;21.83;29.72;99409.69;5063131;28;20048;-55
2021/10/23 08:56:43;;;;;;;0.50;0.20;;;;;;;21.82;29.66;99414.25;5069267;28;20169;-52
2021/10/23 08:59:11;;;;;;;0.63;0.35;;;;;;;21.72;29.50;99404.50;5061367;28;20274;-57
2021/10/23 09:01:39;;;;;;;0.20;0.20;;;;;;;21.82;29.40;99433.22;5067817;28;20064;-55
2021/10/23 09:04:07;;;;;;;0.50;0.20;;;;;;;21.82;29.51;99435.91;5061485;28;20072;-50
2021/10/23 09:06:37;;;;;;;0.30;0.10;;;;;;;21.81;29.55;99442.34;5066077;28;20049;-56
2021/10/23 09:09:08;;;;;;;0.20;0.20;;;;;;;21.82;29.50;99446.75;5067006;28;20421;-51
2021/10/23 09:11:36;;;;;;;0.63;0.30;;;;;;;21.82;29.42;99454.84;5059634;28;20060;-54
2021/10/23 09:14:23;;;;;;;0.60;0.30;;;;;;;21.85;29.44;99453.72;5075324;28;20044;-55
2021/10/23 09:17:00;;;;;;;0.40;0.10;;;;;;;21.83;29.52;99462.00;5071754;28;20051;-53
2021/10/23 09:19:38;;;;;;;1.50;0.30;;;;;;;21.84;29.49;99465.56;5069175;28;20052;-56
2021/10/23 09:22:07;;;;;;;0.30;0.20;;;;;;;21.81;29.50;99464.00;5065855;28;20068;-52
2021/10/23 09:24:36;;;;;;;1.55;0.40;;;;;;;21.82;29.47;99478.38;5071486;28;20048;-56
2021/10/23 09:27:16;;;;;;;0.38;0.20;;;;;;;21.80;29.40;99478.53;5066470;28;20057;-53
2021/10/23 09:29:44;;;;;;;1.25;0.20;;;;;;;21.80;29.50;99486.66;5066975;28;20056;-58
2021/10/23 09:32:12;;;;;;;0.47;0.28;;;;;;;21.81;29.31;99496.47;5069717;28;20409;-51
2021/10/23 09:34:40;;;;;;;0.50;0.20;;;;;;;21.82;29.25;99498.19;5059126;28;20547;-56
2021/10/23 09:37:08;;;;;;;0.63;0.20;;;;;;;21.80;29.34;99493.94;5061189;28;20041;-58
2021/10/23 09:39:37;;;;;;;0.73;0.28;;;;;;;21.82;29.39;99510.88;5062956;28;20576;-55
2021/10/23 09:42:08;;;;;;;0.32;0.10;;;;;;;21.81;29.34;99507.31;5072923;28;20599;-51
2021/10/23 09:44:37;;;;;;;0.45;0.20;;;;;;;21.81;29.54;99518.13;5072451;28;20052;-48
2021/10/23 09:47:04;;;;;;;0.40;0.20;;;;;;;21.81;29.52;99520.84;5068879;28;20379;-52
2021/10/23 09:49:32;;;;;;;0.95;0.30;;;;;;;21.80;29.40;99523.72;5085066;28;20055;-51
2021/10/23 09:52:04;;;;;;;0.60;0.20;;;;;;;21.81;29.33;99531.66;5063629;28;20505;-50
2021/10/23 09:54:32;;;;;;;0.30;0.30;;;;;;;21.81;29.19;99528.13;5075952;28;20057;-54
2021/10/23 09:57:08;;;;;;;0.63;0.22;;;;;;;21.81;29.26;99528.13;5072272;28;20653;-55
2021/10/23 09:59:38;;;;;;;1.80;1.60;;;;;;;21.81;29.24;99531.66;5079117;28;20056;-50
2021/10/23 10:02:06;;;;;;;1.48;0.40;;;;;;;21.79;29.22;99546.34;5070485;28;20052;-52
2021/10/23 10:04:36;;;;;;;0.65;0.30;;;;;;;21.80;29.35;99545.38;5068289;28;20045;-52
2021/10/23 10:07:05;;;;;;;0.68;0.35;;;;;;;21.81;29.27;99553.31;5070121;28;20072;-56
2021/10/23 10:09:33;;;;;;;0.73;0.40;;;;;;;21.81;29.24;99563.31;5066104;28;20064;-53
2021/10/23 10:12:02;;;;;;;1.25;0.50;;;;;;;21.81;29.17;99563.31;5073632;28;20047;-50
2021/10/23 10:14:34;;;;;;;0.93;0.40;;;;;;;21.81;29.24;99566.88;5081871;28;20538;-51
2021/10/23 10:17:02;;;;;;;0.85;0.40;;;;;;;21.80;29.26;99570.59;5084327;28;20052;-53
2021/10/23 10:19:30;;;;;;;0.75;0.35;;;;;;;21.75;29.35;99572.00;5064496;28;20052;-49
2021/10/23 10:22:05;;;;;;;1.20;1.05;;;;;;;21.81;29.25;99583.09;5078685;28;20060;-52
2021/10/23 10:24:35;;;;;;;0.98;0.60;;;;;;;21.80;29.12;99584.13;5075114;28;20064;-53
2021/10/23 10:27:05;;;;;;;1.73;0.40;;;;;;;21.80;29.21;99585.97;5066097;28;20053;-53
2021/10/23 10:29:40;;;;;;;0.60;0.45;;;;;;;21.80;29.27;99592.25;5080395;28;20051;-55
2021/10/23 10:32:14;;;;;;;0.57;0.40;;;;;;;21.79;29.39;99593.22;5070603;28;20056;-56
2021/10/23 10:35:06;;;;;;;0.65;0.40;;;;;;;21.79;29.38;99601.34;5069416;28;20049;-49
2021/10/23 10:37:49;;;;;;;0.98;0.50;;;;;;;21.74;29.27;99600.09;5060808;28;20078;-52
2021/10/23 10:43:17;;;;;;;0.80;0.57;;;;;;;21.79;29.20;99623.00;5006244;28;20573;-51
2021/10/23 10:45:56;;;;;;;1.88;0.40;;;;;;;21.79;29.24;99628.41;5089904;28;20044;-53
2021/10/23 10:48:40;;;;;;;1.63;0.50;;;;;;;21.80;29.20;99637.41;5087664;28;20056;-56
2021/10/23 10:51:18;;;;;;;1.25;0.60;;;;;;;21.77;29.34;99635.84;5060723;28;20079;-53
2021/10/23 10:54:09;;;;;;;1.20;0.50;;;;;;;21.81;29.23;99648.06;5061395;28;20532;-54
2021/10/23 10:56:48;;;;;;;2.70;0.70;;;;;;;21.66;29.11;99628.75;5063145;28;20044;-58
2021/10/23 10:59:49;;;;;;;0.90;0.70;;;;;;;21.81;29.19;99660.75;5067370;28;20063;-58
2021/10/23 11:02:30;;;;;;;0.90;0.52;;;;;;;21.79;29.38;99670.88;5072857;28;20425;-54
2021/10/23 11:05:11;;;;;;;2.13;1.02;;;;;;;21.80;29.24;99678.88;5062526;28;20673;-51
2021/10/23 11:08:02;;;;;;;1.88;0.50;;;;;;;21.79;29.24;99690.66;5065694;28;20044;-55
2021/10/23 11:11:00;;;;;;;1.73;0.80;;;;;;;21.81;29.29;99696.81;5056703;28;20057;-50
2021/10/23 11:13:28;;;;;;;2.65;0.77;;;;;;;21.78;29.33;99699.81;5043561;28;20103;-50
2021/10/23 11:15:56;;;;;;;2.85;0.80;;;;;;;21.77;29.42;99708.09;5068604;28;20055;-50
2021/10/23 11:18:26;;;;;;;1.45;0.65;;;;;;;21.76;29.28;99723.47;5064134;28;20052;-52
2021/10/23 11:20:54;;;;;;;1.42;0.73;;;;;;;21.77;29.33;99722.47;5069675;28;20064;-56
2021/10/23 11:23:23;;;;;;;1.38;0.65;;;;;;;21.77;29.22;99732.44;5066064;28;20076;-54
2021/10/23 11:25:51;;;;;;;1.33;0.90;;;;;;;21.74;29.32;99725.47;5059132;28;20052;-48
2021/10/23 11:28:20;;;;;;;3.15;1.27;;;;;;;21.74;29.47;99736.28;5067050;28;20063;-56
2021/10/23 11:30:48;;;;;;;3.22;0.90;;;;;;;21.75;29.16;99746.09;5080714;28;20079;-50
2021/10/23 11:33:17;;;;;;;1.40;0.68;;;;;;;21.75;29.42;99756.09;5059433;28;20461;-52
2021/10/23 11:35:51;;;;;;;1.77;0.80;;;;;;;21.75;29.34;99765.06;5078945;28;20060;-54
2021/10/23 11:38:20;;;;;;;3.03;0.95;;;;;;;21.75;29.39;99765.06;5072074;28;20060;-52
2021/10/23 11:40:52;;;;;;;1.67;0.93;;;;;;;21.75;29.28;99767.75;5077084;28;20063;-56
2021/10/23 11:43:20;;;;;;;1.30;0.70;;;;;;;21.75;29.46;99781.28;5064524;28;20048;-54
2021/10/23 11:45:48;;;;;;;1.30;0.70;;;;;;;21.76;29.43;99783.03;5061517;28;20591;-56